createdAt,value
2022-09-23T00:01:20.311Z,60.73
2022-09-23T00:03:49.128Z,60.61
2022-09-23T00:06:22.784Z,61.06
2022-09-23T00:08:51.232Z,61.15
2022-09-23T00:11:27.050Z,60.97
2022-09-23T00:13:58.015Z,60.99
2022-09-23T00:16:34.006Z,60.87
2022-09-23T00:19:02.804Z,61.11
2022-09-23T00:21:30.029Z,61.09
2022-09-23T00:23:56.974Z,60.84
2022-09-23T00:26:25.068Z,61.24
2022-09-23T00:28:52.532Z,61.13
2022-09-23T00:31:26.155Z,61.51
2022-09-23T00:33:56.675Z,61.83
2022-09-23T00:36:25.387Z,61.40
2022-09-23T00:38:53.644Z,61.39
2022-09-23T00:41:21.495Z,61.28
2022-09-23T00:43:58.881Z,60.79
2022-09-23T00:46:34.937Z,60.76
2022-09-23T00:49:25.180Z,60.67
2022-09-23T00:52:02.798Z,60.33
2022-09-23T00:54:30.236Z,60.96
2022-09-23T00:56:59.783Z,60.74
2022-09-23T00:59:29.128Z,61.02
2022-09-23T01:01:59.236Z,61.29
2022-09-23T01:04:30.280Z,61.25
2022-09-23T01:06:57.291Z,61.70
2022-09-23T01:09:25.728Z,61.96
2022-09-23T01:12:13.005Z,61.83
2022-09-23T01:14:56.341Z,61.73
2022-09-23T01:17:54.940Z,61.63
2022-09-23T01:20:47.119Z,61.68
2022-09-23T01:23:40.346Z,61.49
2022-09-23T01:27:06.210Z,61.75
2022-09-23T01:30:08.527Z,61.61
2022-09-23T01:33:04.953Z,61.80
2022-09-23T01:35:47.607Z,61.93
2022-09-23T01:38:38.998Z,61.76
2022-09-23T01:41:42.631Z,61.07
2022-09-23T01:44:29.805Z,61.59
2022-09-23T01:47:37.098Z,61.91
2022-09-23T01:50:36.487Z,61.54
2022-09-23T01:53:12.169Z,61.39
2022-09-23T01:55:47.553Z,61.52
2022-09-23T01:58:25.320Z,61.40
2022-09-23T02:01:04.273Z,61.33
2022-09-23T02:03:55.293Z,61.54
2022-09-23T02:06:36.498Z,61.41
2022-09-23T02:09:13.058Z,61.50
2022-09-23T02:11:45.177Z,61.44
2022-09-23T02:14:31.512Z,61.55
2022-09-23T02:17:09.468Z,61.39
2022-09-23T02:19:47.976Z,61.58
2022-09-23T02:22:30.181Z,61.35
2022-09-23T02:24:58.300Z,61.38
2022-09-23T02:28:06.539Z,61.31
2022-09-23T02:30:46.672Z,61.91
2022-09-23T02:33:30.475Z,61.51
2022-09-23T02:36:09.455Z,61.27
2022-09-23T02:38:45.136Z,61.24
2022-09-23T02:41:38.984Z,61.08
2022-09-23T02:44:17.113Z,61.00
2022-09-23T02:46:44.662Z,61.05
2022-09-23T02:49:23.305Z,60.67
2022-09-23T02:51:51.292Z,61.22
2022-09-23T02:54:26.065Z,61.00
2022-09-23T02:56:53.503Z,60.94
2022-09-23T02:59:23.113Z,61.15
2022-09-23T03:02:17.773Z,61.14
2022-09-23T03:05:18.129Z,61.03
2022-09-23T03:08:19.403Z,61.24
2022-09-23T03:11:13.736Z,61.08
2022-09-23T03:14:07.026Z,61.59
2022-09-23T03:16:47.704Z,61.75
2022-09-23T03:19:42.308Z,61.53
2022-09-23T03:22:16.357Z,62.00
2022-09-23T03:24:46.126Z,61.23
2022-09-23T03:27:23.433Z,62.01
2022-09-23T03:29:53.368Z,62.13
2022-09-23T03:32:23.790Z,61.98
2022-09-23T03:34:55.365Z,62.31
2022-09-23T03:38:25.918Z,62.08
2022-09-23T03:40:56.307Z,62.24
2022-09-23T03:43:23.626Z,62.13
2022-09-23T03:45:57.720Z,62.39
2022-09-23T03:48:25.972Z,62.54
2022-09-23T03:50:53.032Z,62.27
2022-09-23T03:53:21.238Z,62.33
2022-09-23T03:55:48.459Z,62.22
2022-09-23T03:58:16.105Z,62.02
2022-09-23T04:00:44.401Z,62.19
2022-09-23T04:03:12.086Z,62.21
2022-09-23T04:05:39.507Z,62.43
2022-09-23T04:08:07.148Z,62.20
2022-09-23T04:10:34.482Z,62.42
2022-09-23T04:13:02.111Z,62.24
2022-09-23T04:15:29.247Z,62.48
2022-09-23T04:17:56.559Z,62.60
2022-09-23T04:20:23.919Z,62.36
2022-09-23T04:22:50.997Z,62.38
2022-09-23T04:25:18.266Z,62.48
2022-09-23T04:27:45.497Z,62.50
2022-09-23T04:30:14.035Z,62.19
2022-09-23T04:32:41.300Z,62.07
2022-09-23T04:35:08.821Z,62.16
2022-09-23T04:37:36.565Z,62.07
2022-09-23T04:40:04.041Z,61.94
2022-09-23T04:42:31.279Z,61.63
2022-09-23T04:44:58.921Z,62.00
2022-09-23T04:47:26.248Z,61.91
2022-09-23T04:49:57.752Z,61.55
2022-09-23T04:52:27.223Z,61.80
2022-09-23T04:54:54.259Z,62.00
2022-09-23T04:57:21.335Z,62.54
2022-09-23T04:59:49.133Z,62.24
2022-09-23T05:02:16.767Z,62.29
2022-09-23T05:04:44.515Z,62.46
2022-09-23T05:07:12.148Z,62.58
2022-09-23T05:09:39.480Z,62.63
2022-09-23T05:12:07.270Z,62.63
2022-09-23T05:14:34.743Z,62.66
2022-09-23T05:17:02.210Z,62.58
2022-09-23T05:19:29.574Z,62.85
2022-09-23T05:21:56.941Z,62.90
2022-09-23T05:24:25.218Z,63.02
2022-09-23T05:26:54.144Z,62.82
2022-09-23T05:29:21.211Z,63.01
2022-09-23T05:31:48.663Z,63.02
2022-09-23T05:34:15.765Z,63.03
2022-09-23T05:36:43.620Z,63.26
2022-09-23T05:39:11.061Z,63.28
2022-09-23T05:41:38.621Z,63.31
2022-09-23T05:44:06.133Z,63.39
2022-09-23T05:46:33.631Z,63.56
2022-09-23T05:49:03.492Z,63.72
2022-09-23T05:51:33.130Z,63.59
2022-09-23T05:54:03.019Z,63.50
2022-09-23T05:56:31.625Z,63.57
2022-09-23T05:59:00.995Z,63.84
2022-09-23T06:01:34.106Z,63.41
2022-09-23T06:04:05.186Z,63.64
2022-09-23T06:06:39.322Z,64.04
2022-09-23T06:09:09.885Z,63.90
2022-09-23T06:11:37.518Z,63.87
2022-09-23T06:14:05.327Z,64.01
2022-09-23T06:16:35.209Z,64.18
2022-09-23T06:19:06.174Z,63.95
2022-09-23T06:21:36.285Z,64.24
2022-09-23T06:24:04.512Z,64.18
2022-09-23T06:26:33.954Z,64.48
2022-09-23T06:29:06.086Z,64.35
2022-09-23T06:31:34.744Z,64.60
2022-09-23T06:34:10.682Z,64.64
2022-09-23T06:36:46.192Z,64.54
2022-09-23T06:39:17.102Z,64.77
2022-09-23T06:41:45.192Z,64.82
2022-09-23T06:44:16.066Z,64.70
2022-09-23T06:46:44.227Z,64.89
2022-09-23T06:49:12.326Z,64.99
2022-09-23T06:51:40.344Z,64.80
2022-09-23T06:54:08.059Z,64.78
2022-09-23T06:56:39.132Z,64.99
2022-09-23T06:59:10.452Z,65.08
2022-09-23T07:01:38.127Z,65.23
2022-09-23T07:04:05.310Z,65.20
2022-09-23T07:06:32.325Z,65.09
2022-09-23T07:09:00.861Z,65.19
2022-09-23T07:11:27.878Z,65.13
2022-09-23T07:13:55.265Z,65.29
2022-09-23T07:16:22.548Z,65.17
2022-09-23T07:18:49.571Z,65.35
2022-09-23T07:21:18.601Z,65.26
2022-09-23T07:23:48.710Z,65.17
2022-09-23T07:26:18.034Z,65.09
2022-09-23T07:28:45.616Z,65.13
2022-09-23T07:31:29.398Z,65.20
2022-09-23T07:34:01.338Z,65.39
2022-09-23T07:36:31.373Z,65.38
2022-09-23T07:39:03.626Z,65.51
2022-09-23T07:41:32.947Z,65.49
2022-09-23T07:44:00.613Z,65.45
2022-09-23T07:46:31.676Z,65.52
2022-09-23T07:48:59.746Z,65.83
2022-09-23T07:51:36.665Z,65.61
2022-09-23T07:54:10.712Z,65.43
2022-09-23T07:56:38.724Z,65.74
2022-09-23T07:59:09.023Z,65.61
2022-09-23T08:01:40.077Z,65.64
2022-09-23T08:04:14.436Z,65.60
2022-09-23T08:06:44.227Z,65.41
2022-09-23T08:09:11.880Z,65.52
2022-09-23T08:11:41.726Z,65.56
2022-09-23T08:14:13.615Z,65.39
2022-09-23T08:16:47.246Z,65.39
2022-09-23T08:19:15.597Z,65.35
2022-09-23T08:21:43.720Z,65.34
2022-09-23T08:24:18.790Z,65.06
2022-09-23T08:26:48.051Z,64.67
2022-09-23T08:29:17.678Z,64.48
2022-09-23T08:31:45.509Z,64.37
2022-09-23T08:34:12.839Z,64.16
2022-09-23T08:36:40.067Z,64.30
2022-09-23T08:39:07.530Z,63.59
2022-09-23T08:42:00.554Z,63.56
2022-09-23T08:44:37.722Z,63.74
2022-09-23T08:47:12.093Z,63.71
2022-09-23T08:50:20.284Z,63.68
2022-09-23T08:52:57.014Z,63.51
2022-09-23T08:55:34.363Z,63.36
2022-09-23T08:58:26.515Z,63.16
2022-09-23T09:01:02.349Z,63.00
2022-09-23T09:04:01.860Z,62.94
2022-09-23T09:06:52.321Z,62.29
2022-09-23T09:09:46.748Z,62.17
2022-09-23T09:12:32.717Z,62.39
2022-09-23T09:15:09.326Z,62.24
2022-09-23T09:17:54.966Z,62.31
2022-09-23T09:20:43.623Z,62.30
2022-09-23T09:23:36.933Z,61.61
2022-09-23T09:26:06.367Z,61.38
2022-09-23T09:29:11.456Z,61.21
2022-09-23T09:31:50.062Z,61.00
2022-09-23T09:34:54.728Z,60.58
2022-09-23T09:37:44.569Z,59.71
2022-09-23T09:40:13.012Z,59.78
2022-09-23T09:42:42.529Z,60.08
2022-09-23T09:45:24.206Z,59.77
2022-09-23T09:48:39.400Z,59.70
2022-09-23T09:51:24.603Z,59.96
2022-09-23T09:53:52.684Z,58.75
2022-09-23T09:56:34.191Z,58.43
2022-09-23T09:59:11.652Z,58.14
2022-09-23T10:01:39.226Z,56.98
2022-09-23T10:04:35.559Z,56.84
2022-09-23T10:07:16.949Z,57.18
2022-09-23T10:09:51.957Z,56.45
2022-09-23T10:12:25.241Z,56.24
2022-09-23T10:14:57.167Z,56.55
2022-09-23T10:17:33.139Z,55.71
2022-09-23T10:20:07.863Z,55.33
2022-09-23T10:22:42.376Z,56.17
2022-09-23T10:25:20.176Z,55.85
2022-09-23T10:27:47.511Z,55.70
2022-09-23T10:30:23.097Z,55.91
2022-09-23T10:32:54.867Z,54.93
2022-09-23T10:35:24.502Z,55.24
2022-09-23T10:37:53.505Z,55.96
2022-09-23T10:41:00.311Z,55.17
2022-09-23T10:44:14.098Z,55.09
2022-09-23T10:47:16.495Z,54.99
2022-09-23T10:50:23.961Z,54.59
2022-09-23T10:53:34.920Z,54.19
2022-09-23T10:56:23.177Z,54.00
2022-09-23T10:59:20.289Z,53.56
2022-09-23T11:02:35.906Z,53.46
2022-09-23T11:05:15.312Z,52.66
2022-09-23T11:08:14.862Z,53.11
2022-09-23T11:11:00.432Z,53.26
2022-09-23T11:13:40.785Z,52.54
2022-09-23T11:16:38.992Z,51.96
2022-09-23T11:19:33.719Z,52.15
2022-09-23T11:22:18.533Z,52.58
2022-09-23T11:25:19.317Z,52.94
2022-09-23T11:28:10.951Z,52.32
2022-09-23T11:31:27.310Z,51.98
2022-09-23T11:34:22.337Z,52.21
2022-09-23T11:36:57.974Z,52.24
2022-09-23T11:39:32.129Z,52.11
2022-09-23T11:42:02.366Z,51.57
2022-09-23T11:44:48.501Z,51.86
2022-09-23T11:47:23.822Z,51.78
2022-09-23T11:50:17.751Z,52.19
2022-09-23T11:52:51.860Z,51.87
2022-09-23T11:55:27.465Z,50.98
2022-09-23T11:58:00.036Z,50.80
2022-09-23T12:00:36.449Z,51.04
2022-09-23T12:03:22.713Z,51.10
2022-09-23T12:06:03.529Z,51.74
2022-09-23T12:08:35.443Z,51.67
2022-09-23T12:11:26.606Z,52.30
2022-09-23T12:14:33.666Z,51.35
2022-09-23T12:17:46.602Z,51.83
2022-09-23T12:20:35.456Z,52.01
2022-09-23T12:23:33.483Z,50.33
2022-09-23T12:26:08.247Z,50.69
2022-09-23T12:28:40.728Z,50.80
2022-09-23T12:31:18.760Z,49.21
2022-09-23T12:33:54.127Z,49.27
2022-09-23T12:36:35.390Z,48.98
2022-09-23T12:39:20.234Z,48.23
2022-09-23T12:41:50.709Z,48.74
2022-09-23T12:44:41.938Z,47.89
2022-09-23T12:47:15.284Z,47.58
2022-09-23T12:49:43.689Z,46.98
2022-09-23T12:52:16.604Z,45.22
2022-09-23T12:55:15.313Z,45.85
2022-09-23T12:57:42.748Z,47.05
2022-09-23T13:00:23.081Z,45.45
2022-09-23T13:03:10.049Z,45.38
2022-09-23T13:06:25.706Z,44.77
2022-09-23T13:08:53.228Z,44.08
2022-09-23T13:11:29.428Z,42.97
2022-09-23T13:14:04.304Z,42.87
2022-09-23T13:16:41.655Z,42.73
2022-09-23T13:19:27.134Z,41.69
2022-09-23T13:21:54.158Z,41.16
2022-09-23T13:24:34.937Z,40.49
2022-09-23T13:27:27.075Z,40.38
2022-09-23T13:30:05.991Z,40.41
2022-09-23T13:32:47.266Z,39.68
2022-09-23T13:35:15.721Z,39.61
2022-09-23T13:37:51.772Z,38.01
2022-09-23T13:40:27.086Z,36.67
2022-09-23T13:43:10.865Z,37.59
2022-09-23T13:45:43.030Z,38.37
2022-09-23T13:48:15.331Z,37.12
2022-09-23T13:50:51.197Z,36.67
2022-09-23T13:53:31.898Z,36.37
2022-09-23T13:56:15.088Z,36.21
2022-09-23T13:58:43.407Z,36.64
2022-09-23T14:01:31.360Z,35.88
2022-09-23T14:03:58.641Z,34.99
2022-09-23T14:06:29.659Z,34.55
2022-09-23T14:08:58.404Z,34.02
2022-09-23T14:11:35.444Z,33.38
2022-09-23T14:14:07.859Z,32.53
2022-09-23T14:16:40.896Z,32.50
2022-09-23T14:19:15.785Z,32.24
2022-09-23T14:21:43.181Z,33.40
2022-09-23T14:24:22.214Z,32.12
2022-09-23T14:27:15.701Z,33.33
2022-09-23T14:29:48.290Z,31.73
2022-09-23T14:32:26.244Z,31.93
2022-09-23T14:35:19.644Z,31.83
2022-09-23T14:38:10.994Z,31.49
2022-09-23T14:40:50.887Z,31.49
2022-09-23T14:43:26.081Z,31.47
2022-09-23T14:45:56.881Z,30.91
2022-09-23T14:48:32.330Z,31.51
2022-09-23T14:51:02.943Z,30.91
2022-09-23T14:53:50.541Z,30.91
2022-09-23T14:56:23.189Z,30.41
2022-09-23T14:58:57.813Z,30.66
2022-09-23T15:01:38.558Z,31.01
2022-09-23T15:04:23.084Z,30.50
2022-09-23T15:07:00.054Z,30.38
2022-09-23T15:09:41.315Z,30.40
2022-09-23T15:12:22.108Z,30.46
2022-09-23T15:14:54.291Z,30.58
2022-09-23T15:17:24.298Z,30.84
2022-09-23T15:19:59.913Z,30.71
2022-09-23T15:22:27.302Z,31.09
2022-09-23T15:25:10.762Z,31.09
2022-09-23T15:27:39.205Z,31.34
2022-09-23T15:30:15.423Z,31.29
2022-09-23T15:32:44.620Z,31.66
2022-09-23T15:35:21.815Z,31.53
2022-09-23T15:37:51.698Z,32.04
2022-09-23T15:40:29.161Z,31.69
2022-09-23T15:42:58.870Z,32.30
2022-09-23T15:45:37.512Z,32.26
2022-09-23T15:48:08.257Z,32.28
2022-09-23T15:50:36.757Z,32.32
2022-09-23T15:53:06.322Z,32.46
2022-09-23T15:55:33.863Z,32.40
2022-09-23T15:58:01.623Z,32.67
2022-09-23T16:00:28.690Z,33.22
2022-09-23T16:02:57.231Z,33.26
2022-09-23T16:05:36.470Z,33.53
2022-09-23T16:08:08.977Z,33.94
2022-09-23T16:10:37.835Z,33.90
2022-09-23T16:13:09.757Z,34.20
2022-09-23T16:15:39.132Z,34.30
2022-09-23T16:18:08.750Z,34.42
2022-09-23T16:20:42.788Z,34.91
2022-09-23T16:23:19.340Z,34.95
2022-09-23T16:25:46.424Z,34.96
2022-09-23T16:28:14.787Z,35.31
2022-09-23T16:30:41.906Z,35.06
2022-09-23T16:33:08.790Z,35.29
2022-09-23T16:35:38.296Z,35.71
2022-09-23T16:38:05.857Z,36.00
2022-09-23T16:40:33.205Z,35.97
2022-09-23T16:43:04.297Z,36.25
2022-09-23T16:45:31.989Z,36.47
2022-09-23T16:47:59.902Z,36.56
2022-09-23T16:50:28.707Z,36.53
2022-09-23T16:52:56.317Z,37.01
2022-09-23T16:55:25.722Z,36.97
2022-09-23T16:57:54.061Z,37.25
2022-09-23T17:00:40.162Z,37.32
2022-09-23T17:03:26.061Z,37.98
2022-09-23T17:05:54.709Z,38.11
2022-09-23T17:08:24.029Z,38.35
2022-09-23T17:11:00.069Z,38.55
2022-09-23T17:13:29.596Z,39.09
2022-09-23T17:15:56.685Z,38.95
2022-09-23T17:18:23.985Z,38.89
2022-09-23T17:21:04.281Z,39.82
2022-09-23T17:23:33.439Z,39.66
2022-09-23T17:26:02.536Z,39.63
2022-09-23T17:28:29.653Z,39.77
2022-09-23T17:31:03.412Z,40.23
2022-09-23T17:33:32.648Z,40.06
2022-09-23T17:36:02.700Z,40.30
2022-09-23T17:38:29.854Z,40.70
2022-09-23T17:40:59.786Z,40.75
2022-09-23T17:43:27.656Z,40.79
2022-09-23T17:46:11.361Z,40.94
2022-09-23T17:48:44.137Z,41.35
2022-09-23T17:51:17.409Z,41.66
2022-09-23T17:53:47.012Z,41.54
2022-09-23T17:56:25.000Z,41.69
2022-09-23T17:58:53.973Z,41.33
2022-09-23T18:01:25.084Z,41.74
2022-09-23T18:03:59.707Z,42.18
2022-09-23T18:06:31.796Z,41.84
2022-09-23T18:09:06.842Z,42.19
2022-09-23T18:11:37.953Z,42.26
2022-09-23T18:14:13.151Z,42.41
2022-09-23T18:16:43.137Z,42.47
2022-09-23T18:19:16.888Z,42.78
2022-09-23T18:21:50.747Z,42.83
2022-09-23T18:24:31.811Z,42.66
2022-09-23T18:27:00.889Z,42.99
2022-09-23T18:29:28.559Z,42.60
2022-09-23T18:31:56.243Z,43.06
2022-09-23T18:34:23.696Z,43.14
2022-09-23T18:36:51.089Z,43.27
2022-09-23T18:39:18.147Z,43.48
2022-09-23T18:41:45.049Z,43.44
2022-09-23T18:44:12.654Z,43.50
2022-09-23T18:46:39.705Z,43.92
2022-09-23T18:49:25.601Z,43.92
2022-09-23T18:51:56.078Z,44.33
2022-09-23T18:54:27.378Z,44.41
2022-09-23T18:56:55.296Z,44.49
2022-09-23T18:59:28.222Z,44.59
2022-09-23T19:01:56.272Z,44.61
2022-09-23T19:04:25.514Z,44.69
2022-09-23T19:06:54.803Z,44.36
2022-09-23T19:09:21.980Z,44.77
2022-09-23T19:11:53.156Z,45.08
2022-09-23T19:14:20.586Z,45.31
2022-09-23T19:16:49.311Z,45.41
2022-09-23T19:19:16.842Z,45.42
2022-09-23T19:21:43.861Z,45.50
2022-09-23T19:24:16.197Z,45.80
2022-09-23T19:26:44.011Z,46.11
2022-09-23T19:29:17.094Z,46.13
2022-09-23T19:31:44.370Z,45.92
2022-09-23T19:34:17.693Z,47.10
2022-09-23T19:36:47.833Z,47.13
2022-09-23T19:39:23.873Z,47.38
2022-09-23T19:41:53.803Z,47.23
2022-09-23T19:44:20.923Z,47.09
2022-09-23T19:46:55.173Z,47.57
2022-09-23T19:49:25.008Z,47.20
2022-09-23T19:51:57.242Z,47.38
2022-09-23T19:54:27.459Z,47.59
2022-09-23T19:56:55.277Z,47.29
2022-09-23T19:59:22.274Z,47.75
2022-09-23T20:01:54.761Z,47.82
2022-09-23T20:04:26.200Z,47.72
2022-09-23T20:06:53.233Z,47.89
2022-09-23T20:09:20.594Z,48.00
2022-09-23T20:11:49.811Z,47.84
2022-09-23T20:14:19.393Z,47.91
2022-09-23T20:16:46.477Z,47.82
2022-09-23T20:19:13.681Z,48.30
2022-09-23T20:21:40.739Z,48.52
2022-09-23T20:24:09.731Z,49.74
2022-09-23T20:26:55.113Z,49.58
2022-09-23T20:29:22.336Z,49.51
2022-09-23T20:31:49.599Z,49.33
2022-09-23T20:34:16.812Z,49.29
2022-09-23T20:36:44.271Z,49.87
2022-09-23T20:39:11.620Z,49.85
2022-09-23T20:41:39.367Z,49.79
2022-09-23T20:44:12.185Z,49.68
2022-09-23T20:46:48.132Z,49.94
2022-09-23T20:49:20.685Z,49.71
2022-09-23T20:51:48.938Z,49.73
2022-09-23T20:54:19.434Z,49.70
2022-09-23T20:56:47.517Z,49.36
2022-09-23T20:59:15.015Z,49.54
2022-09-23T21:01:43.032Z,49.79
2022-09-23T21:04:10.359Z,50.34
2022-09-23T21:06:38.949Z,50.45
2022-09-23T21:09:06.858Z,50.04
2022-09-23T21:11:34.504Z,50.37
2022-09-23T21:14:02.120Z,50.47
2022-09-23T21:16:30.679Z,50.58
2022-09-23T21:18:58.890Z,50.79
2022-09-23T21:21:26.807Z,50.90
2022-09-23T21:23:53.814Z,50.85
2022-09-23T21:26:25.905Z,50.88
2022-09-23T21:28:56.990Z,51.09
2022-09-23T21:31:36.657Z,50.98
2022-09-23T21:34:14.466Z,50.91
2022-09-23T21:36:43.502Z,50.76
2022-09-23T21:39:12.401Z,50.67
2022-09-23T21:41:40.164Z,50.53
2022-09-23T21:44:08.634Z,50.33
2022-09-23T21:46:36.732Z,50.43
2022-09-23T21:49:05.043Z,50.86
2022-09-23T21:51:40.875Z,50.70
2022-09-23T21:54:15.684Z,50.92
2022-09-23T21:56:44.011Z,51.24
2022-09-23T21:59:11.265Z,51.13
2022-09-23T22:01:44.860Z,51.14
2022-09-23T22:04:17.103Z,50.86
2022-09-23T22:06:46.934Z,51.16
2022-09-23T22:09:21.175Z,51.27
2022-09-23T22:12:09.630Z,51.50
2022-09-23T22:14:37.054Z,51.61
2022-09-23T22:17:07.212Z,51.93
2022-09-23T22:19:45.573Z,51.66
2022-09-23T22:22:16.197Z,51.58
2022-09-23T22:24:45.608Z,52.10
2022-09-23T22:27:16.213Z,52.45
2022-09-23T22:30:01.475Z,52.64
2022-09-23T22:32:34.703Z,51.93
2022-09-23T22:35:01.941Z,52.37
2022-09-23T22:37:34.852Z,52.05
2022-09-23T22:40:09.607Z,52.26
2022-09-23T22:42:37.669Z,52.73
2022-09-23T22:45:05.841Z,52.63
2022-09-23T22:47:38.828Z,52.58
2022-09-23T22:50:08.407Z,53.09
2022-09-23T22:52:36.176Z,52.62
2022-09-23T22:55:04.931Z,52.60
2022-09-23T22:57:31.961Z,52.58
2022-09-23T22:59:59.202Z,52.96
2022-09-23T23:02:26.171Z,53.14
2022-09-23T23:04:53.376Z,52.81
2022-09-23T23:07:21.501Z,53.49
2022-09-23T23:09:52.621Z,53.54
2022-09-23T23:12:21.249Z,53.31
2022-09-23T23:14:49.508Z,53.65
2022-09-23T23:17:17.430Z,53.47
2022-09-23T23:19:45.228Z,53.48
2022-09-23T23:22:12.210Z,53.70
2022-09-23T23:24:39.235Z,53.72
2022-09-23T23:27:06.217Z,54.14
2022-09-23T23:29:33.300Z,54.02
2022-09-23T23:32:00.224Z,53.96
2022-09-23T23:34:27.942Z,54.14
2022-09-23T23:36:55.930Z,53.66
2022-09-23T23:39:25.154Z,53.67
2022-09-23T23:41:55.264Z,53.26
2022-09-23T23:44:24.507Z,53.49
2022-09-23T23:46:52.675Z,53.91
2022-09-23T23:49:20.059Z,54.08
2022-09-23T23:51:47.848Z,53.88
2022-09-23T23:54:15.488Z,53.65
2022-09-23T23:56:43.036Z,53.68
2022-09-23T23:59:10.319Z,54.22
